createdAt,value
2018-06-17T00:02:27.554Z,19.40
2018-06-17T00:05:02.887Z,15.00
2018-06-17T00:07:39.052Z,16.20
2018-06-17T00:10:14.931Z,16.97
2018-06-17T00:12:52.287Z,16.97
2018-06-17T00:15:29.074Z,16.33
2018-06-17T00:18:06.766Z,16.97
2018-06-17T00:20:43.276Z,18.40
2018-06-17T00:23:19.938Z,20.17
2018-06-17T00:25:54.943Z,19.73
2018-06-17T00:28:31.615Z,19.57
2018-06-17T00:31:06.745Z,19.20
2018-06-17T00:33:42.608Z,19.47
2018-06-17T00:36:17.229Z,20.23
2018-06-17T00:38:53.690Z,19.57
2018-06-17T00:41:31.298Z,17.77
2018-06-17T00:44:08.268Z,17.40
2018-06-17T00:46:44.442Z,16.97
2018-06-17T00:49:21.179Z,16.77
2018-06-17T00:51:57.172Z,17.07
2018-06-17T00:54:33.305Z,17.47
2018-06-17T00:57:20.529Z,17.10
2018-06-17T00:59:55.676Z,16.77
2018-06-17T01:02:34.056Z,18.37
2018-06-17T01:05:10.144Z,17.73
2018-06-17T01:07:45.170Z,17.43
2018-06-17T01:10:21.828Z,17.13
2018-06-17T01:12:58.238Z,17.13
2018-06-17T01:15:33.550Z,15.80
2018-06-17T01:18:12.995Z,15.87
2018-06-17T01:20:48.024Z,16.43
2018-06-17T01:23:24.594Z,17.20
2018-06-17T01:26:06.678Z,16.27
2018-06-17T01:28:43.649Z,16.17
2018-06-17T01:31:20.118Z,14.50
2018-06-17T01:33:55.929Z,14.53
2018-06-17T01:36:33.095Z,15.27
2018-06-17T01:39:10.163Z,14.40
2018-06-17T01:41:46.882Z,16.10
2018-06-17T01:44:23.994Z,15.23
2018-06-17T01:47:04.042Z,14.00
2018-06-17T01:49:43.603Z,13.47
2018-06-17T01:52:21.397Z,14.37
2018-06-17T01:54:57.043Z,13.93
2018-06-17T01:57:32.478Z,13.73
2018-06-17T02:00:08.855Z,13.90
2018-06-17T02:02:43.896Z,13.97
2018-06-17T02:05:27.789Z,13.13
2018-06-17T02:08:07.989Z,12.87
2018-06-17T02:12:50.158Z,13.40
2018-06-17T02:15:25.514Z,13.17
2018-06-17T02:18:01.274Z,13.93
2018-06-17T02:23:07.041Z,12.67
2018-06-17T02:25:44.340Z,16.40
2018-06-17T02:28:20.684Z,13.23
2018-06-17T02:30:56.647Z,16.17
2018-06-17T02:33:34.651Z,13.77
2018-06-17T02:36:12.338Z,14.30
2018-06-17T02:38:48.314Z,12.93
2018-06-17T02:41:24.248Z,13.60
2018-06-17T02:44:02.782Z,13.33
2018-06-17T02:46:43.143Z,14.20
2018-06-17T02:49:24.293Z,12.97
2018-06-17T02:52:05.721Z,12.73
2018-06-17T02:54:45.330Z,14.40
2018-06-17T02:57:23.214Z,13.23
2018-06-17T03:00:01.072Z,14.13
2018-06-17T03:02:37.389Z,13.97
2018-06-17T03:05:13.327Z,12.07
2018-06-17T03:07:50.166Z,12.87
2018-06-17T03:10:27.178Z,13.57
2018-06-17T03:13:03.582Z,12.57
2018-06-17T03:15:40.446Z,13.70
2018-06-17T03:18:15.470Z,13.60
2018-06-17T03:20:49.831Z,13.60
2018-06-17T03:23:30.151Z,14.30
2018-06-17T03:26:11.576Z,13.77
2018-06-17T03:28:52.736Z,14.07
2018-06-17T03:31:32.570Z,14.43
2018-06-17T03:34:09.546Z,14.00
2018-06-17T03:36:46.061Z,14.93
2018-06-17T03:39:21.850Z,13.90
2018-06-17T03:41:58.319Z,14.07
2018-06-17T03:44:33.988Z,14.07
2018-06-17T03:47:10.754Z,13.97
2018-06-17T03:49:45.871Z,13.87
2018-06-17T03:52:21.725Z,12.97
2018-06-17T03:54:57.581Z,13.73
2018-06-17T03:57:32.958Z,14.60
2018-06-17T04:00:10.054Z,14.57
2018-06-17T04:02:46.673Z,13.13
2018-06-17T04:05:29.193Z,13.07
2018-06-17T04:08:04.322Z,12.60
2018-06-17T04:10:42.833Z,12.90
2018-06-17T04:13:20.732Z,13.60
2018-06-17T04:15:56.717Z,13.67
2018-06-17T04:18:32.947Z,14.13
2018-06-17T04:21:09.951Z,13.30
2018-06-17T04:23:45.794Z,13.97
2018-06-17T04:26:22.419Z,13.63
2018-06-17T04:28:59.996Z,12.57
2018-06-17T04:31:39.251Z,12.67
2018-06-17T04:34:15.694Z,13.20
2018-06-17T04:36:51.293Z,12.23
2018-06-17T04:39:28.164Z,12.03
2018-06-17T04:42:07.012Z,12.47
2018-06-17T04:44:41.722Z,11.83
2018-06-17T04:47:18.047Z,11.50
2018-06-17T04:49:53.462Z,11.30
2018-06-17T04:52:30.369Z,13.33
2018-06-17T04:55:07.701Z,12.97
2018-06-17T04:57:45.578Z,13.07
2018-06-17T05:00:21.017Z,12.27
2018-06-17T05:02:57.721Z,12.47
2018-06-17T05:05:34.490Z,11.87
2018-06-17T05:08:13.394Z,13.13
2018-06-17T05:10:49.658Z,15.00
2018-06-17T05:13:26.239Z,11.57
2018-06-17T05:16:01.773Z,11.23
2018-06-17T05:18:38.012Z,11.47
2018-06-17T05:21:13.708Z,11.90
2018-06-17T05:23:50.895Z,12.40
2018-06-17T05:26:27.338Z,11.80
2018-06-17T05:29:02.175Z,11.03
2018-06-17T05:31:38.842Z,10.93
2018-06-17T05:34:14.702Z,11.87
2018-06-17T05:36:50.617Z,10.67
2018-06-17T05:39:28.456Z,11.17
2018-06-17T05:42:07.565Z,10.57
2018-06-17T05:44:42.808Z,12.47
2018-06-17T05:47:19.896Z,9.77
2018-06-17T05:49:58.299Z,8.70
2018-06-17T05:52:33.850Z,8.90
2018-06-17T05:55:10.599Z,7.20
2018-06-17T05:57:48.217Z,8.27
2018-06-17T06:00:23.249Z,5.90
2018-06-17T06:03:00.614Z,8.87
2018-06-17T06:05:37.457Z,6.27
2018-06-17T06:08:13.467Z,6.47
2018-06-17T06:10:52.178Z,7.43
2018-06-17T06:13:29.062Z,7.00
2018-06-17T06:16:06.543Z,4.40
2018-06-17T06:18:43.015Z,7.47
2018-06-17T06:21:19.586Z,7.13
2018-06-17T06:23:55.186Z,4.53
2018-06-17T06:26:30.567Z,6.70
2018-06-17T06:29:07.176Z,8.13
2018-06-17T06:31:46.876Z,7.43
2018-06-17T06:34:21.286Z,6.07
2018-06-17T06:36:57.377Z,5.27
2018-06-17T06:39:32.919Z,9.83
2018-06-17T06:42:09.478Z,5.93
2018-06-17T06:44:45.734Z,8.03
2018-06-17T06:47:20.961Z,7.50
2018-06-17T06:49:57.972Z,6.53
2018-06-17T06:52:33.924Z,6.20
2018-06-17T06:55:10.297Z,3.63
2018-06-17T06:57:47.163Z,6.83
2018-06-17T07:00:22.949Z,5.77
2018-06-17T07:03:10.206Z,6.53
2018-06-17T07:05:57.037Z,6.70
2018-06-17T07:08:43.163Z,5.43
2018-06-17T07:11:20.677Z,9.50
2018-06-17T07:13:55.865Z,8.03
2018-06-17T07:16:42.249Z,6.57
2018-06-17T07:19:20.516Z,6.43
2018-06-17T07:21:56.927Z,7.53
2018-06-17T07:24:33.185Z,6.47
2018-06-17T07:27:21.733Z,5.07
2018-06-17T07:29:59.837Z,5.23
2018-06-17T07:32:36.765Z,6.77
2018-06-17T07:35:12.084Z,7.03
2018-06-17T07:37:48.224Z,5.80
2018-06-17T07:40:58.493Z,6.57
2018-06-17T07:43:36.292Z,6.47
2018-06-17T07:46:13.164Z,5.67
2018-06-17T07:49:57.308Z,7.73
2018-06-17T07:52:44.323Z,6.20
2018-06-17T07:55:21.219Z,6.40
2018-06-17T07:58:01.164Z,5.73
2018-06-17T08:00:40.361Z,4.90
2018-06-17T08:03:17.875Z,7.77
2018-06-17T08:05:53.419Z,8.33
2018-06-17T08:08:29.672Z,4.07
2018-06-17T08:11:07.125Z,6.87
2018-06-17T08:13:42.232Z,3.90
2018-06-17T08:16:18.569Z,7.60
2018-06-17T08:18:53.712Z,5.80
2018-06-17T08:21:29.878Z,5.50
2018-06-17T08:24:06.023Z,8.67
2018-06-17T08:26:42.420Z,5.20
2018-06-17T08:29:19.292Z,5.40
2018-06-17T08:31:55.026Z,4.73
2018-06-17T08:34:30.888Z,3.93
2018-06-17T08:37:08.376Z,6.53
2018-06-17T08:39:46.263Z,8.17
2018-06-17T08:42:21.214Z,6.13
2018-06-17T08:44:57.763Z,7.97
2018-06-17T08:47:33.507Z,6.20
2018-06-17T08:50:11.202Z,4.67
2018-06-17T08:52:53.226Z,8.37
2018-06-17T08:55:29.343Z,5.90
2018-06-17T08:58:05.630Z,6.80
2018-06-17T09:00:40.982Z,5.73
2018-06-17T09:03:18.115Z,5.97
2018-06-17T09:05:55.243Z,5.57
2018-06-17T09:08:32.113Z,5.60
2018-06-17T09:11:09.596Z,6.50
2018-06-17T09:13:47.353Z,5.67
2018-06-17T09:16:25.201Z,5.03
2018-06-17T09:19:00.727Z,6.63
2018-06-17T09:21:37.905Z,5.97
2018-06-17T09:24:13.976Z,8.73
2018-06-17T09:26:51.674Z,4.90
2018-06-17T09:29:28.157Z,4.53
2018-06-17T09:32:03.544Z,7.60
2018-06-17T09:34:39.218Z,7.60
2018-06-17T09:37:14.163Z,5.77
2018-06-17T09:39:50.534Z,6.60
2018-06-17T09:42:27.055Z,3.50
2018-06-17T09:45:02.427Z,6.73
2018-06-17T09:47:39.626Z,4.30
2018-06-17T09:50:22.851Z,4.03
2018-06-17T09:52:59.422Z,5.57
2018-06-17T09:55:35.744Z,6.27
2018-06-17T09:58:12.561Z,5.90
2018-06-17T10:00:49.835Z,5.77
2018-06-17T10:03:26.306Z,7.03
2018-06-17T10:06:02.063Z,6.13
2018-06-17T10:08:39.746Z,9.87
2018-06-17T10:11:15.901Z,7.80
2018-06-17T10:13:51.756Z,6.50
2018-06-17T10:16:28.978Z,5.03
2018-06-17T10:19:04.614Z,5.10
2018-06-17T10:21:45.457Z,5.37
2018-06-17T10:24:22.144Z,4.37
2018-06-17T10:27:01.046Z,4.40
2018-06-17T10:29:39.464Z,6.87
2018-06-17T10:32:19.123Z,3.67
2018-06-17T10:34:56.091Z,6.93
2018-06-17T10:37:32.767Z,6.00
2018-06-17T10:40:11.092Z,6.73
2018-06-17T10:42:50.298Z,4.70
2018-06-17T10:45:26.868Z,7.13
2018-06-17T10:48:02.525Z,8.00
2018-06-17T10:50:39.507Z,5.07
2018-06-17T10:53:17.182Z,8.67
2018-06-17T10:55:53.036Z,6.70
2018-06-17T10:58:30.464Z,6.77
2018-06-17T11:01:06.691Z,6.00
2018-06-17T11:03:42.247Z,6.00
2018-06-17T11:06:19.615Z,7.43
2018-06-17T11:08:55.501Z,5.70
2018-06-17T11:11:31.258Z,5.67
2018-06-17T11:14:09.634Z,6.53
2018-06-17T11:16:46.517Z,5.53
2018-06-17T11:19:24.005Z,4.10
2018-06-17T11:22:01.200Z,5.20
2018-06-17T11:24:37.246Z,5.17
2018-06-17T11:27:13.994Z,5.80
2018-06-17T11:29:51.722Z,5.30
2018-06-17T11:32:27.854Z,3.57
2018-06-17T11:35:03.844Z,6.30
2018-06-17T11:37:41.430Z,3.73
2018-06-17T11:40:18.401Z,6.33
2018-06-17T11:42:54.382Z,4.43
2018-06-17T11:45:29.809Z,4.10
2018-06-17T11:48:07.810Z,5.67
2018-06-17T11:50:42.955Z,4.73
2018-06-17T11:53:19.110Z,5.23
2018-06-17T11:55:53.494Z,4.03
2018-06-17T11:58:28.460Z,3.77
2018-06-17T12:01:04.040Z,4.17
2018-06-17T12:03:39.917Z,3.80
2018-06-17T12:06:14.807Z,6.37
2018-06-17T12:08:49.995Z,3.93
2018-06-17T12:11:27.306Z,6.13
2018-06-17T12:14:04.556Z,5.40
2018-06-17T12:16:41.480Z,4.77
2018-06-17T12:19:17.601Z,5.20
2018-06-17T12:21:59.825Z,5.77
2018-06-17T12:24:36.915Z,4.70
2018-06-17T12:27:12.545Z,7.33
2018-06-17T12:29:49.844Z,3.67
2018-06-17T12:32:24.765Z,6.37
2018-06-17T12:34:59.811Z,4.70
2018-06-17T12:37:35.490Z,4.60
2018-06-17T12:40:10.792Z,7.17
2018-06-17T12:42:46.212Z,4.30
2018-06-17T12:45:21.245Z,4.63
2018-06-17T12:47:56.793Z,4.23
2018-06-17T12:50:33.400Z,5.47
2018-06-17T12:53:10.140Z,4.53
2018-06-17T12:55:47.724Z,4.90
2018-06-17T12:58:23.442Z,12.03
2018-06-17T13:01:02.015Z,4.73
2018-06-17T13:03:39.110Z,3.90
2018-06-17T13:06:18.078Z,4.43
2018-06-17T13:08:54.794Z,6.13
2018-06-17T13:11:30.386Z,6.50
2018-06-17T13:14:06.512Z,3.80
2018-06-17T13:16:43.625Z,5.83
2018-06-17T13:19:18.734Z,5.23
2018-06-17T13:21:53.860Z,3.27
2018-06-17T13:24:30.106Z,4.57
2018-06-17T13:27:09.222Z,3.43
2018-06-17T13:29:45.672Z,5.40
2018-06-17T13:32:21.259Z,4.43
2018-06-17T13:35:00.800Z,4.87
2018-06-17T13:37:39.914Z,5.60
2018-06-17T13:40:17.436Z,4.93
2018-06-17T13:42:53.440Z,8.47
2018-06-17T13:45:30.630Z,8.70
2018-06-17T13:48:07.032Z,5.23
2018-06-17T13:50:42.455Z,5.83
2018-06-17T13:53:21.802Z,5.13
2018-06-17T13:56:00.722Z,3.87
2018-06-17T13:58:36.425Z,4.90
2018-06-17T14:01:12.539Z,9.77
2018-06-17T14:03:49.441Z,5.43
2018-06-17T14:06:26.597Z,4.27
2018-06-17T14:09:02.318Z,4.67
2018-06-17T14:11:39.923Z,3.83
2018-06-17T14:14:16.314Z,3.80
2018-06-17T14:16:51.366Z,4.47
2018-06-17T14:22:11.228Z,4.47
2018-06-17T14:24:49.834Z,3.83
2018-06-17T14:27:31.201Z,3.70
2018-06-17T14:30:11.514Z,3.10
2018-06-17T14:32:50.558Z,7.37
2018-06-17T14:35:26.548Z,5.67
2018-06-17T14:38:06.009Z,3.27
2018-06-17T14:40:51.175Z,3.40
2018-06-17T14:43:35.567Z,2.90
2018-06-17T14:46:18.524Z,4.10
2018-06-17T14:49:02.174Z,2.97
2018-06-17T14:53:49.510Z,5.60
2018-06-17T14:56:28.014Z,4.43
2018-06-17T14:59:05.595Z,6.03
2018-06-17T15:01:42.298Z,2.67
2018-06-17T15:04:18.663Z,3.10
2018-06-17T15:06:56.296Z,3.20
2018-06-17T15:09:33.197Z,3.97
2018-06-17T15:12:09.801Z,3.27
2018-06-17T15:14:48.439Z,4.93
2018-06-17T15:17:25.076Z,3.07
2018-06-17T15:20:01.561Z,3.17
2018-06-17T15:22:38.732Z,6.50
2018-06-17T15:25:14.068Z,9.43
2018-06-17T15:27:50.949Z,5.23
2018-06-17T15:30:28.344Z,4.43
2018-06-17T15:33:10.023Z,5.20
2018-06-17T15:35:50.686Z,6.23
2018-06-17T15:38:32.265Z,3.57
2018-06-17T15:41:14.888Z,6.83
2018-06-17T15:43:50.923Z,4.10
2018-06-17T15:46:28.948Z,3.77
2018-06-17T15:49:05.095Z,5.53
2018-06-17T15:51:40.147Z,3.47
2018-06-17T15:54:16.385Z,6.17
2018-06-17T15:56:52.196Z,4.90
2018-06-17T15:59:29.944Z,5.10
2018-06-17T16:02:06.101Z,3.43
2018-06-17T16:04:42.475Z,3.90
2018-06-17T16:07:19.652Z,7.73
2018-06-17T16:09:57.778Z,3.33
2018-06-17T16:12:39.062Z,4.20
2018-06-17T16:15:20.723Z,3.57
2018-06-17T16:18:01.719Z,4.67
2018-06-17T16:20:42.769Z,4.97
2018-06-17T16:23:18.551Z,3.57
2018-06-17T16:25:53.860Z,3.97
2018-06-17T16:28:30.420Z,5.77
2018-06-17T16:31:06.097Z,4.57
2018-06-17T16:33:42.465Z,4.13
2018-06-17T16:36:20.026Z,3.10
2018-06-17T16:38:54.983Z,7.17
2018-06-17T16:41:31.967Z,7.03
2018-06-17T16:44:11.094Z,3.90
2018-06-17T16:46:48.264Z,5.67
2018-06-17T16:49:24.113Z,3.80
2018-06-17T16:52:05.284Z,4.87
2018-06-17T16:54:47.084Z,5.47
2018-06-17T16:57:29.163Z,3.33
2018-06-17T17:00:16.802Z,4.13
2018-06-17T17:02:52.355Z,4.60
2018-06-17T17:05:29.023Z,5.80
2018-06-17T17:08:04.483Z,4.30
2018-06-17T17:10:41.153Z,3.83
2018-06-17T17:13:17.970Z,5.43
2018-06-17T17:15:53.143Z,4.10
2018-06-17T17:18:30.150Z,8.97
2018-06-17T17:21:06.410Z,38.13
2018-06-17T17:23:43.775Z,7.07
2018-06-17T17:26:19.839Z,11.53
2018-06-17T17:28:57.493Z,13.43
2018-06-17T17:31:38.007Z,30.40
2018-06-17T17:34:18.121Z,64.27
2018-06-17T17:36:59.339Z,44.13
2018-06-17T17:39:40.912Z,134.00
2018-06-17T17:42:18.714Z,121.07
2018-06-17T17:44:59.060Z,11.47
2018-06-17T17:47:35.823Z,6.17
2018-06-17T17:50:12.612Z,4.10
2018-06-17T17:52:49.285Z,16.33
2018-06-17T17:55:24.419Z,5.93
2018-06-17T17:58:00.041Z,5.67
2018-06-17T18:00:37.446Z,6.97
2018-06-17T18:03:14.750Z,5.33
2018-06-17T18:05:51.303Z,5.87
2018-06-17T18:08:29.026Z,5.60
2018-06-17T18:11:04.754Z,4.17
2018-06-17T18:13:40.119Z,3.03
2018-06-17T18:16:16.595Z,5.50
2018-06-17T18:18:52.327Z,3.83
2018-06-17T18:21:29.074Z,3.70
2018-06-17T18:24:06.171Z,3.67
2018-06-17T18:26:47.672Z,4.37
2018-06-17T18:29:28.565Z,4.83
2018-06-17T18:32:10.109Z,3.63
2018-06-17T18:34:53.580Z,4.57
2018-06-17T18:37:30.505Z,3.23
2018-06-17T18:40:08.364Z,4.53
2018-06-17T18:42:48.358Z,3.27
2018-06-17T18:45:26.906Z,5.57
2018-06-17T18:48:02.338Z,4.03
2018-06-17T18:50:40.123Z,4.67
2018-06-17T18:53:25.035Z,6.20
2018-06-17T18:56:00.839Z,4.23
2018-06-17T18:58:37.101Z,3.57
2018-06-17T19:01:13.474Z,4.57
2018-06-17T19:03:49.747Z,5.60
2018-06-17T19:06:27.111Z,5.47
2018-06-17T19:09:10.615Z,5.37
2018-06-17T19:11:59.715Z,5.70
2018-06-17T19:14:50.996Z,6.57
2018-06-17T19:17:40.221Z,4.00
2018-06-17T19:20:18.304Z,3.90
2018-06-17T19:22:55.318Z,4.80
2018-06-17T19:25:30.598Z,4.87
2018-06-17T19:28:07.914Z,7.40
2018-06-17T19:30:44.072Z,6.47
2018-06-17T19:33:22.172Z,6.90
2018-06-17T19:35:58.725Z,7.73
2018-06-17T19:38:35.096Z,5.13
2018-06-17T19:41:11.039Z,4.70
2018-06-17T19:43:48.980Z,7.27
2018-06-17T19:46:25.648Z,5.37
2018-06-17T19:49:01.985Z,5.37
2018-06-17T19:51:43.391Z,5.50
2018-06-17T19:54:26.939Z,6.70
2018-06-17T19:57:09.607Z,4.40
2018-06-17T19:59:50.802Z,6.07
2018-06-17T20:02:26.136Z,4.27
2018-06-17T20:05:01.396Z,4.03
2018-06-17T20:07:40.218Z,4.97
2018-06-17T20:10:20.362Z,3.37
2018-06-17T20:12:58.500Z,5.70
2018-06-17T20:15:34.624Z,4.47
2018-06-17T20:18:14.771Z,3.93
2018-06-17T20:20:50.829Z,4.30
2018-06-17T20:23:30.144Z,5.23
2018-06-17T20:26:07.950Z,5.40
2018-06-17T20:28:44.315Z,7.00
2018-06-17T20:31:20.294Z,4.60
2018-06-17T20:34:00.795Z,4.20
2018-06-17T20:36:41.198Z,4.63
2018-06-17T20:39:22.952Z,3.70
2018-06-17T20:42:07.643Z,4.10
2018-06-17T20:44:42.314Z,4.33
2018-06-17T20:47:19.135Z,3.87
2018-06-17T20:49:54.185Z,3.53
2018-06-17T20:52:31.462Z,4.87
2018-06-17T20:55:07.521Z,3.27
2018-06-17T20:57:43.256Z,4.17
2018-06-17T21:00:18.525Z,5.17
2018-06-17T21:02:53.952Z,4.70
2018-06-17T21:05:29.778Z,4.73
2018-06-17T21:08:05.161Z,7.40
2018-06-17T21:10:40.663Z,4.27
2018-06-17T21:13:18.790Z,3.43
2018-06-17T21:16:01.830Z,6.90
2018-06-17T21:18:43.275Z,4.67
2018-06-17T21:21:23.633Z,6.33
2018-06-17T21:24:03.820Z,6.10
2018-06-17T21:26:43.911Z,5.33
2018-06-17T21:29:18.875Z,4.23
2018-06-17T21:31:54.542Z,4.13
2018-06-17T21:34:29.789Z,5.83
2018-06-17T21:37:04.917Z,6.53
2018-06-17T21:39:40.117Z,6.33
2018-06-17T21:42:15.599Z,4.90
2018-06-17T21:44:50.493Z,4.47
2018-06-17T21:47:28.898Z,4.60
2018-06-17T21:50:04.793Z,5.70
2018-06-17T21:52:40.826Z,3.87
2018-06-17T21:55:15.965Z,4.53
2018-06-17T21:57:51.063Z,4.70
2018-06-17T22:00:26.250Z,4.20
2018-06-17T22:03:01.075Z,5.90
2018-06-17T22:05:36.376Z,5.00
2018-06-17T22:08:18.019Z,5.67
2018-06-17T22:10:59.095Z,5.93
2018-06-17T22:13:40.258Z,6.60
2018-06-17T22:16:20.753Z,4.73
2018-06-17T22:18:56.217Z,5.93
2018-06-17T22:21:31.754Z,6.43
2018-06-17T22:24:07.915Z,8.60
2018-06-17T22:26:42.864Z,4.30
2018-06-17T22:29:19.238Z,5.43
2018-06-17T22:31:55.002Z,4.50
2018-06-17T22:34:30.890Z,5.57
2018-06-17T22:37:07.556Z,6.33
2018-06-17T22:39:43.011Z,8.47
2018-06-17T22:42:19.151Z,4.60
2018-06-17T22:44:54.237Z,10.20
2018-06-17T22:47:35.050Z,4.33
2018-06-17T22:50:11.201Z,5.57
2018-06-17T22:52:58.651Z,4.73
2018-06-17T22:55:34.898Z,4.20
2018-06-17T22:58:18.860Z,4.30
2018-06-17T23:00:59.501Z,6.03
2018-06-17T23:03:40.565Z,4.63
2018-06-17T23:06:21.610Z,7.93
2018-06-17T23:09:02.942Z,5.73
2018-06-17T23:11:39.373Z,4.30
2018-06-17T23:14:15.197Z,4.67
2018-06-17T23:16:51.499Z,6.23
2018-06-17T23:19:27.618Z,5.20
2018-06-17T23:22:02.403Z,5.87
2018-06-17T23:24:40.007Z,4.57
2018-06-17T23:27:15.457Z,5.13
2018-06-17T23:29:51.295Z,4.43
2018-06-17T23:32:27.278Z,5.90
2018-06-17T23:35:02.518Z,4.33
2018-06-17T23:37:38.394Z,4.20
2018-06-17T23:40:13.862Z,5.57
2018-06-17T23:42:49.934Z,4.83
2018-06-17T23:45:25.966Z,8.67
2018-06-17T23:48:07.893Z,4.67
2018-06-17T23:50:48.352Z,6.93
2018-06-17T23:53:28.591Z,6.40
2018-06-17T23:56:09.152Z,6.60
2018-06-17T23:58:46.919Z,8.33
